createdAt,value
2023-01-25T00:02:04.979Z,53.33
2023-01-25T00:04:34.385Z,58.38
2023-01-25T00:07:04.199Z,59.18
2023-01-25T00:09:33.438Z,60.55
2023-01-25T00:12:02.966Z,59.18
2023-01-25T00:14:32.189Z,55.78
2023-01-25T00:17:01.418Z,59.38
2023-01-25T00:19:30.979Z,58.90
2023-01-25T00:22:00.509Z,54.53
2023-01-25T00:24:29.728Z,57.27
2023-01-25T00:26:58.959Z,57.15
2023-01-25T00:29:28.259Z,56.53
2023-01-25T00:32:09.397Z,56.85
2023-01-25T00:34:50.168Z,55.67
2023-01-25T00:37:37.814Z,58.60
2023-01-25T00:40:08.274Z,54.95
2023-01-25T00:42:39.668Z,56.90
2023-01-25T00:45:10.820Z,62.10
2023-01-25T00:47:40.359Z,57.50
2023-01-25T00:50:10.516Z,60.70
2023-01-25T00:52:41.726Z,61.83
2023-01-25T00:55:11.400Z,58.55
2023-01-25T00:57:40.595Z,58.70
2023-01-25T01:00:11.272Z,59.83
2023-01-25T01:02:40.632Z,64.03
2023-01-25T01:05:11.064Z,57.90
2023-01-25T01:07:40.612Z,55.55
2023-01-25T01:10:10.777Z,56.95
2023-01-25T01:12:39.983Z,58.58
2023-01-25T01:15:10.547Z,61.60
2023-01-25T01:17:40.056Z,59.13
2023-01-25T01:20:10.306Z,57.88
2023-01-25T01:22:39.547Z,59.20
2023-01-25T01:25:10.893Z,60.88
2023-01-25T01:27:40.429Z,60.90
2023-01-25T01:30:11.515Z,61.05
2023-01-25T01:32:41.163Z,65.62
2023-01-25T01:35:11.102Z,63.05
2023-01-25T01:37:43.234Z,62.62
2023-01-25T01:40:17.864Z,58.25
2023-01-25T01:43:04.670Z,55.23
2023-01-25T01:45:50.890Z,57.93
2023-01-25T01:48:27.994Z,59.73
2023-01-25T01:51:01.236Z,59.27
2023-01-25T01:53:32.281Z,61.58
2023-01-25T01:56:04.060Z,63.10
2023-01-25T01:58:34.039Z,62.05
2023-01-25T02:01:05.063Z,59.65
2023-01-25T02:03:34.984Z,62.05
2023-01-25T02:06:07.926Z,57.98
2023-01-25T02:08:39.603Z,60.98
2023-01-25T02:11:11.158Z,63.13
2023-01-25T02:13:40.473Z,59.48
2023-01-25T02:16:17.877Z,62.03
2023-01-25T02:18:47.939Z,57.78
2023-01-25T02:21:17.339Z,58.73
2023-01-25T02:24:14.045Z,58.65
2023-01-25T02:26:43.266Z,62.93
2023-01-25T02:29:12.885Z,61.25
2023-01-25T02:31:46.328Z,65.83
2023-01-25T02:34:15.966Z,60.10
2023-01-25T02:36:45.235Z,59.77
2023-01-25T02:39:20.045Z,60.48
2023-01-25T02:41:49.717Z,62.60
2023-01-25T02:44:25.152Z,62.13
2023-01-25T02:46:54.683Z,59.88
2023-01-25T02:49:25.005Z,58.30
2023-01-25T02:51:59.089Z,59.63
2023-01-25T02:54:28.826Z,61.37
2023-01-25T02:56:58.444Z,62.33
2023-01-25T02:59:28.757Z,62.65
2023-01-25T03:01:59.682Z,61.58
2023-01-25T03:04:29.724Z,60.33
2023-01-25T03:06:59.118Z,61.18
2023-01-25T03:09:28.587Z,63.35
2023-01-25T03:11:57.861Z,63.38
2023-01-25T03:14:27.481Z,58.50
2023-01-25T03:16:56.803Z,63.95
2023-01-25T03:19:27.503Z,64.07
2023-01-25T03:21:56.862Z,62.27
2023-01-25T03:24:26.999Z,65.87
2023-01-25T03:27:11.518Z,63.45
2023-01-25T03:29:42.744Z,62.17
2023-01-25T03:32:13.775Z,60.50
2023-01-25T03:34:43.597Z,65.05
2023-01-25T03:37:13.429Z,63.25
2023-01-25T03:39:44.013Z,60.10
2023-01-25T03:42:14.047Z,64.65
2023-01-25T03:44:44.827Z,70.72
2023-01-25T03:47:14.848Z,67.22
2023-01-25T03:49:44.804Z,65.72
2023-01-25T03:52:15.371Z,60.03
2023-01-25T03:54:44.953Z,62.85
2023-01-25T03:57:15.031Z,62.85
2023-01-25T03:59:45.973Z,66.53
2023-01-25T04:02:15.285Z,65.80
2023-01-25T04:04:44.909Z,65.62
2023-01-25T04:07:14.616Z,64.42
2023-01-25T04:09:44.215Z,63.20
2023-01-25T04:12:13.900Z,63.78
2023-01-25T04:14:44.922Z,65.20
2023-01-25T04:17:16.279Z,61.68
2023-01-25T04:19:59.248Z,65.60
2023-01-25T04:22:30.207Z,68.37
2023-01-25T04:24:59.605Z,65.62
2023-01-25T04:27:29.839Z,62.40
2023-01-25T04:30:01.204Z,67.08
2023-01-25T04:32:32.279Z,65.32
2023-01-25T04:35:02.011Z,63.42
2023-01-25T04:37:31.561Z,64.82
2023-01-25T04:40:01.445Z,65.08
2023-01-25T04:42:32.408Z,73.57
2023-01-25T04:45:01.912Z,73.70
2023-01-25T04:47:31.740Z,70.32
2023-01-25T04:50:01.503Z,78.28
2023-01-25T04:52:32.863Z,75.65
2023-01-25T04:55:02.715Z,72.47
2023-01-25T04:57:34.316Z,70.42
2023-01-25T05:00:04.131Z,74.53
2023-01-25T05:02:34.618Z,71.37
2023-01-25T05:05:05.273Z,71.05
2023-01-25T05:07:34.598Z,73.92
2023-01-25T05:10:05.056Z,66.65
2023-01-25T05:12:35.126Z,68.52
2023-01-25T05:15:07.016Z,69.50
2023-01-25T05:17:36.578Z,66.62
2023-01-25T05:20:06.579Z,73.78
2023-01-25T05:22:36.349Z,82.27
2023-01-25T05:25:08.378Z,81.67
2023-01-25T05:27:39.660Z,83.22
2023-01-25T05:30:22.637Z,83.50
2023-01-25T05:32:53.772Z,82.80
2023-01-25T05:35:23.978Z,82.37
2023-01-25T05:38:00.151Z,83.22
2023-01-25T05:40:29.889Z,89.75
2023-01-25T05:43:02.275Z,90.45
2023-01-25T05:45:32.405Z,69.90
2023-01-25T05:48:04.019Z,96.30
2023-01-25T05:50:33.410Z,93.52
2023-01-25T05:53:04.854Z,95.45
2023-01-25T05:55:36.921Z,93.92
2023-01-25T05:58:07.894Z,97.40
2023-01-25T06:00:37.306Z,92.40
2023-01-25T06:03:06.939Z,92.97
2023-01-25T06:05:38.377Z,94.83
2023-01-25T06:08:07.605Z,93.90
2023-01-25T06:10:38.899Z,91.67
2023-01-25T06:13:08.124Z,89.67
2023-01-25T06:15:37.793Z,85.50
2023-01-25T06:18:08.871Z,90.73
2023-01-25T06:20:42.830Z,88.25
2023-01-25T06:23:12.526Z,85.35
2023-01-25T06:25:42.112Z,88.27
2023-01-25T06:28:11.555Z,82.97
2023-01-25T06:30:41.084Z,82.75
2023-01-25T06:33:10.559Z,90.95
2023-01-25T06:35:40.565Z,82.35
2023-01-25T06:38:10.474Z,83.37
2023-01-25T06:40:40.027Z,85.30
2023-01-25T06:43:10.939Z,87.20
2023-01-25T06:45:40.174Z,85.53
2023-01-25T06:48:09.390Z,82.60
2023-01-25T06:50:39.174Z,89.47
2023-01-25T06:53:08.381Z,88.82
2023-01-25T06:55:37.822Z,85.15
2023-01-25T06:58:07.040Z,88.82
2023-01-25T07:00:36.553Z,84.87
2023-01-25T07:03:05.953Z,88.58
2023-01-25T07:05:36.014Z,83.25
2023-01-25T07:08:05.542Z,84.55
2023-01-25T07:10:34.888Z,82.33
2023-01-25T07:13:04.103Z,83.65
2023-01-25T07:15:33.715Z,86.02
2023-01-25T07:18:15.628Z,83.67
2023-01-25T07:20:34.664Z,83.62
2023-01-25T07:23:04.378Z,81.63
2023-01-25T07:25:34.309Z,81.72
2023-01-25T07:28:03.594Z,80.85
2023-01-25T07:30:33.089Z,81.17
2023-01-25T07:33:02.324Z,85.35
2023-01-25T07:35:32.959Z,82.10
2023-01-25T07:38:02.828Z,84.72
2023-01-25T07:40:32.244Z,83.55
2023-01-25T07:43:02.058Z,81.97
2023-01-25T07:45:32.520Z,79.20
2023-01-25T07:48:04.096Z,86.05
2023-01-25T07:50:33.760Z,80.30
2023-01-25T07:53:03.454Z,81.22
2023-01-25T07:55:32.994Z,83.60
2023-01-25T07:58:02.872Z,79.90
2023-01-25T08:00:32.438Z,79.27
2023-01-25T08:03:01.633Z,79.97
2023-01-25T08:05:31.376Z,82.65
2023-01-25T08:08:00.627Z,81.37
2023-01-25T08:10:30.307Z,85.38
2023-01-25T08:12:59.538Z,81.02
2023-01-25T08:15:29.003Z,82.05
2023-01-25T08:18:02.424Z,75.03
2023-01-25T08:20:31.790Z,80.28
2023-01-25T08:23:01.006Z,81.45
2023-01-25T08:25:30.237Z,81.20
2023-01-25T08:27:59.512Z,80.53
2023-01-25T08:30:29.057Z,84.72
2023-01-25T08:32:58.369Z,78.52
2023-01-25T08:35:27.809Z,78.28
2023-01-25T08:37:57.047Z,83.20
2023-01-25T08:40:26.543Z,79.58
2023-01-25T08:42:55.806Z,79.45
2023-01-25T08:45:25.560Z,85.12
2023-01-25T08:47:54.868Z,80.83
2023-01-25T08:50:24.427Z,78.42
2023-01-25T08:52:53.858Z,80.67
2023-01-25T08:55:23.660Z,81.20
2023-01-25T08:57:55.102Z,81.00
2023-01-25T09:00:24.876Z,83.90
2023-01-25T09:02:54.121Z,80.17
2023-01-25T09:05:23.349Z,80.50
2023-01-25T09:07:52.739Z,84.00
2023-01-25T09:10:22.629Z,82.37
2023-01-25T09:12:51.993Z,80.28
2023-01-25T09:15:22.773Z,80.12
2023-01-25T09:17:54.390Z,86.87
2023-01-25T09:20:24.354Z,86.12
2023-01-25T09:22:53.765Z,84.92
2023-01-25T09:25:22.995Z,82.30
2023-01-25T09:27:52.973Z,75.72
2023-01-25T09:30:30.627Z,81.63
2023-01-25T09:32:54.653Z,85.80
2023-01-25T09:35:23.874Z,82.75
2023-01-25T09:37:53.711Z,83.45
2023-01-25T09:40:24.611Z,82.17
2023-01-25T09:42:57.294Z,81.45
2023-01-25T09:45:34.664Z,78.90
2023-01-25T09:48:30.634Z,87.92
2023-01-25T09:51:18.266Z,77.75
2023-01-25T09:53:52.234Z,81.30
2023-01-25T09:56:30.585Z,85.38
2023-01-25T09:59:05.615Z,79.40
2023-01-25T10:01:41.017Z,79.58
2023-01-25T10:04:28.845Z,86.47
2023-01-25T10:07:02.143Z,82.92
2023-01-25T10:10:06.622Z,83.95
2023-01-25T10:12:40.385Z,77.47
2023-01-25T10:15:20.474Z,85.32
2023-01-25T10:18:04.433Z,88.58
2023-01-25T10:20:39.611Z,83.70
2023-01-25T10:23:31.847Z,85.47
2023-01-25T10:26:10.254Z,80.80
2023-01-25T10:28:45.435Z,82.53
2023-01-25T10:31:25.336Z,77.65
2023-01-25T10:33:57.630Z,84.17
2023-01-25T10:36:30.125Z,84.05
2023-01-25T10:41:41.170Z,77.70
2023-01-25T10:44:28.822Z,83.50
2023-01-25T10:47:04.252Z,78.70
2023-01-25T10:49:45.827Z,82.62
2023-01-25T10:52:29.557Z,81.50
2023-01-25T10:55:22.735Z,88.22
2023-01-25T10:57:58.737Z,81.45
2023-01-25T11:00:30.753Z,79.12
2023-01-25T11:03:00.499Z,80.47
2023-01-25T11:05:41.704Z,85.40
2023-01-25T11:08:17.659Z,78.12
2023-01-25T11:10:47.105Z,85.75
2023-01-25T11:13:19.878Z,77.67
2023-01-25T11:15:52.750Z,84.45
2023-01-25T11:18:24.234Z,84.67
2023-01-25T11:21:08.189Z,81.60
2023-01-25T11:23:37.496Z,76.28
2023-01-25T11:26:20.626Z,79.32
2023-01-25T11:28:49.980Z,81.67
2023-01-25T11:31:21.970Z,82.65
2023-01-25T11:33:51.744Z,82.15
2023-01-25T11:36:36.175Z,81.35
2023-01-25T11:39:11.404Z,83.65
2023-01-25T11:42:01.952Z,81.08
2023-01-25T11:45:03.364Z,79.27
2023-01-25T11:48:05.414Z,82.42
2023-01-25T11:50:45.364Z,79.70
2023-01-25T11:53:36.195Z,78.02
2023-01-25T11:56:14.215Z,82.20
2023-01-25T11:59:03.862Z,81.00
2023-01-25T12:01:45.039Z,84.10
2023-01-25T12:04:34.512Z,77.90
2023-01-25T12:07:18.829Z,79.90
2023-01-25T12:10:13.492Z,82.82
2023-01-25T12:12:48.852Z,77.50
2023-01-25T12:15:30.255Z,83.25
2023-01-25T12:18:11.363Z,77.60
2023-01-25T12:21:03.021Z,81.95
2023-01-25T12:23:47.753Z,78.80
2023-01-25T12:26:31.548Z,82.85
2023-01-25T12:29:19.363Z,80.40
2023-01-25T12:31:58.075Z,84.77
2023-01-25T12:34:30.736Z,79.10
2023-01-25T12:37:03.446Z,84.40
2023-01-25T12:39:39.395Z,83.37
2023-01-25T12:42:14.852Z,81.90
2023-01-25T12:44:47.679Z,76.55
2023-01-25T12:47:20.648Z,89.72
2023-01-25T12:50:02.503Z,88.42
2023-01-25T12:52:40.547Z,88.70
2023-01-25T12:55:15.305Z,88.55
2023-01-25T12:57:51.188Z,90.00
2023-01-25T13:00:35.643Z,95.53
2023-01-25T13:03:41.717Z,88.37
2023-01-25T13:06:23.267Z,87.42
2023-01-25T13:09:12.360Z,94.75
2023-01-25T13:11:43.601Z,97.15
2023-01-25T13:14:22.129Z,103.60
2023-01-25T13:17:08.535Z,97.95
2023-01-25T13:19:32.797Z,104.83
2023-01-25T13:22:02.168Z,105.72
2023-01-25T13:24:35.988Z,106.05
2023-01-25T13:27:25.229Z,111.72
2023-01-25T13:29:59.460Z,109.67
2023-01-25T13:32:37.562Z,111.47
2023-01-25T13:35:10.247Z,108.45
2023-01-25T13:37:39.534Z,106.17
2023-01-25T13:40:38.385Z,114.55
2023-01-25T13:43:22.498Z,119.50
2023-01-25T13:45:53.379Z,113.50
2023-01-25T13:48:24.487Z,110.88
2023-01-25T13:51:02.205Z,110.37
2023-01-25T13:53:37.624Z,116.25
2023-01-25T13:56:09.427Z,120.92
2023-01-25T13:58:41.866Z,144.47
2023-01-25T14:03:50.311Z,131.78
2023-01-25T14:06:30.833Z,134.90
2023-01-25T14:09:04.924Z,131.90
2023-01-25T14:11:36.389Z,152.10
2023-01-25T14:14:21.555Z,95.60
2023-01-25T14:19:37.018Z,113.17
2023-01-25T14:22:27.042Z,134.95
2023-01-25T14:25:17.459Z,110.45
2023-01-25T14:27:57.607Z,110.37
2023-01-25T14:30:34.546Z,109.78
2023-01-25T14:33:07.598Z,121.10
2023-01-25T14:35:54.633Z,119.90
2023-01-25T14:38:27.421Z,122.95
2023-01-25T14:40:59.567Z,130.60
2023-01-25T14:43:29.955Z,127.65
2023-01-25T14:45:59.200Z,137.10
2023-01-25T14:48:40.639Z,132.72
2023-01-25T14:51:16.224Z,132.20
2023-01-25T14:53:47.814Z,127.85
2023-01-25T14:56:32.171Z,136.30
2023-01-25T14:59:02.264Z,127.55
2023-01-25T15:01:35.185Z,127.05
2023-01-25T15:04:05.514Z,135.15
2023-01-25T15:06:35.412Z,128.30
2023-01-25T15:09:04.984Z,121.07
2023-01-25T15:11:40.061Z,132.72
2023-01-25T15:14:18.538Z,136.35
2023-01-25T15:16:48.004Z,129.63
2023-01-25T15:19:25.994Z,134.93
2023-01-25T15:22:01.969Z,143.68
2023-01-25T15:24:31.631Z,134.97
2023-01-25T15:27:00.828Z,143.50
2023-01-25T15:29:30.445Z,137.05
2023-01-25T15:31:59.847Z,169.60
2023-01-25T15:34:33.037Z,153.15
2023-01-25T15:37:02.396Z,129.63
2023-01-25T15:39:32.898Z,141.75
2023-01-25T15:42:02.350Z,125.02
2023-01-25T15:44:32.258Z,145.95
2023-01-25T15:47:02.645Z,138.60
2023-01-25T15:49:32.484Z,134.50
2023-01-25T15:52:01.688Z,149.47
2023-01-25T15:54:31.059Z,137.20
2023-01-25T15:57:01.014Z,118.37
2023-01-25T15:59:30.882Z,125.15
2023-01-25T16:02:00.439Z,113.37
2023-01-25T16:04:29.722Z,130.60
2023-01-25T16:07:00.977Z,127.10
2023-01-25T16:09:33.406Z,122.60
2023-01-25T16:12:03.147Z,122.07
2023-01-25T16:14:32.824Z,122.58
2023-01-25T16:17:04.113Z,129.40
2023-01-25T16:19:34.224Z,139.15
2023-01-25T16:22:03.611Z,146.90
2023-01-25T16:24:32.887Z,138.22
2023-01-25T16:27:02.494Z,138.03
2023-01-25T16:29:31.832Z,143.47
2023-01-25T16:32:01.339Z,144.40
2023-01-25T16:34:31.026Z,147.32
2023-01-25T16:37:01.894Z,138.88
2023-01-25T16:39:32.250Z,152.65
2023-01-25T16:42:01.575Z,139.55
2023-01-25T16:44:31.061Z,157.18
2023-01-25T16:47:00.617Z,155.65
2023-01-25T16:49:30.809Z,146.45
2023-01-25T16:52:02.935Z,152.43
2023-01-25T16:54:32.698Z,156.05
2023-01-25T16:57:18.648Z,157.88
2023-01-25T16:59:33.393Z,160.88
2023-01-25T17:02:02.793Z,161.60
2023-01-25T17:04:32.036Z,141.05
2023-01-25T17:07:01.263Z,155.12
2023-01-25T17:09:30.779Z,146.90
2023-01-25T17:12:00.031Z,157.67
2023-01-25T17:14:29.270Z,150.75
2023-01-25T17:16:58.831Z,154.97
2023-01-25T17:19:28.170Z,143.97
2023-01-25T17:21:59.145Z,161.37
2023-01-25T17:24:29.120Z,155.80
2023-01-25T17:27:00.925Z,159.93
2023-01-25T17:29:30.404Z,147.68
2023-01-25T17:32:00.463Z,147.98
2023-01-25T17:34:29.741Z,153.50
2023-01-25T17:36:59.041Z,141.20
2023-01-25T17:39:28.283Z,148.75
2023-01-25T17:41:57.951Z,150.00
2023-01-25T17:44:27.360Z,152.30
2023-01-25T17:46:57.099Z,143.85
2023-01-25T17:49:28.047Z,150.93
2023-01-25T17:51:57.465Z,149.77
2023-01-25T17:54:27.875Z,155.67
2023-01-25T17:56:57.128Z,164.28
2023-01-25T17:59:26.589Z,159.87
2023-01-25T18:01:55.919Z,158.60
2023-01-25T18:04:25.554Z,164.37
2023-01-25T18:06:54.993Z,159.65
2023-01-25T18:09:25.096Z,168.20
2023-01-25T18:11:54.648Z,171.50
2023-01-25T18:14:23.937Z,178.55
2023-01-25T18:16:53.992Z,188.62
2023-01-25T18:19:23.216Z,186.73
2023-01-25T18:21:52.558Z,171.68
2023-01-25T18:24:34.051Z,172.68
2023-01-25T18:27:09.080Z,177.67
2023-01-25T18:29:50.550Z,175.03
2023-01-25T18:32:20.200Z,191.45
2023-01-25T18:34:49.571Z,187.92
2023-01-25T18:37:21.265Z,195.28
2023-01-25T18:39:53.051Z,192.50
2023-01-25T18:42:24.971Z,194.50
2023-01-25T18:44:55.543Z,191.57
2023-01-25T18:47:25.482Z,212.02
2023-01-25T18:49:55.117Z,204.53
2023-01-25T18:52:25.048Z,215.87
2023-01-25T18:54:55.036Z,209.22
2023-01-25T18:57:25.356Z,211.05
2023-01-25T18:59:55.246Z,207.37
2023-01-25T19:02:25.131Z,205.03
2023-01-25T19:04:55.732Z,210.95
2023-01-25T19:07:25.185Z,206.35
2023-01-25T19:09:54.542Z,198.60
2023-01-25T19:12:23.862Z,199.70
2023-01-25T19:14:53.148Z,208.05
2023-01-25T19:17:22.558Z,203.27
2023-01-25T19:19:52.413Z,198.78
2023-01-25T19:22:21.934Z,202.18
2023-01-25T19:24:51.412Z,198.87
2023-01-25T19:27:20.771Z,197.87
2023-01-25T19:29:50.411Z,186.90
2023-01-25T19:32:19.761Z,190.28
2023-01-25T19:34:49.419Z,183.07
2023-01-25T19:37:18.706Z,191.37
2023-01-25T19:39:48.501Z,183.95
2023-01-25T19:42:18.756Z,193.78
2023-01-25T19:44:48.765Z,193.62
2023-01-25T19:47:18.317Z,196.75
2023-01-25T19:49:49.287Z,202.87
2023-01-25T19:52:18.787Z,198.75
2023-01-25T19:54:48.064Z,193.75
2023-01-25T19:57:17.480Z,196.18
2023-01-25T19:59:46.900Z,216.42
2023-01-25T20:02:16.351Z,206.40
2023-01-25T20:04:45.652Z,222.45
2023-01-25T20:07:15.364Z,223.13
2023-01-25T20:09:44.633Z,221.13
2023-01-25T20:12:14.034Z,229.90
2023-01-25T20:14:44.462Z,232.72
2023-01-25T20:17:14.235Z,225.87
2023-01-25T20:19:44.538Z,228.10
2023-01-25T20:22:14.018Z,227.38
2023-01-25T20:24:43.407Z,240.25
2023-01-25T20:27:12.677Z,238.60
2023-01-25T20:29:42.244Z,255.47
2023-01-25T20:32:26.638Z,237.05
2023-01-25T20:34:43.000Z,239.23
2023-01-25T20:37:12.223Z,240.55
2023-01-25T20:39:41.837Z,235.20
2023-01-25T20:42:11.406Z,263.90
2023-01-25T20:44:40.849Z,242.47
2023-01-25T20:47:10.296Z,241.65
2023-01-25T20:49:41.203Z,235.45
2023-01-25T20:52:12.346Z,233.53
2023-01-25T20:54:42.031Z,259.65
2023-01-25T20:57:11.472Z,245.10
2023-01-25T20:59:41.044Z,237.82
2023-01-25T21:02:11.985Z,236.32
2023-01-25T21:04:41.580Z,249.62
2023-01-25T21:07:11.488Z,236.85
2023-01-25T21:09:42.917Z,235.82
2023-01-25T21:12:12.466Z,236.22
2023-01-25T21:14:41.781Z,231.02
2023-01-25T21:17:11.541Z,234.37
2023-01-25T21:19:41.136Z,227.43
2023-01-25T21:22:10.742Z,221.97
2023-01-25T21:24:40.165Z,239.10
2023-01-25T21:27:09.707Z,226.07
2023-01-25T21:29:38.919Z,237.97
2023-01-25T21:32:08.603Z,251.73
2023-01-25T21:34:38.115Z,246.87
2023-01-25T21:37:07.686Z,229.07
2023-01-25T21:39:37.081Z,227.75
2023-01-25T21:42:06.603Z,227.50
2023-01-25T21:44:53.786Z,212.78
2023-01-25T21:47:30.323Z,225.03
2023-01-25T21:50:12.527Z,216.50
2023-01-25T21:52:42.545Z,226.58
2023-01-25T21:55:13.204Z,226.25
2023-01-25T21:57:44.675Z,226.67
2023-01-25T22:00:16.299Z,225.43
2023-01-25T22:02:46.141Z,204.38
2023-01-25T22:05:15.502Z,208.80
2023-01-25T22:07:44.883Z,203.70
2023-01-25T22:10:14.175Z,209.05
2023-01-25T22:12:45.766Z,204.53
2023-01-25T22:15:15.039Z,190.30
2023-01-25T22:17:45.453Z,204.72
2023-01-25T22:20:14.665Z,207.30
2023-01-25T22:22:44.094Z,208.57
2023-01-25T22:25:13.360Z,189.10
2023-01-25T22:27:48.677Z,198.53
2023-01-25T22:30:17.911Z,191.68
2023-01-25T22:32:47.399Z,193.22
2023-01-25T22:35:16.977Z,199.65
2023-01-25T22:37:46.434Z,193.32
2023-01-25T22:40:15.975Z,193.22
2023-01-25T22:42:45.529Z,200.25
2023-01-25T22:45:16.384Z,185.52
2023-01-25T22:47:46.270Z,180.10
2023-01-25T22:50:15.640Z,174.62
2023-01-25T22:52:45.361Z,167.30
2023-01-25T22:55:14.635Z,169.90
2023-01-25T22:57:44.103Z,170.80
2023-01-25T23:00:14.418Z,182.27
2023-01-25T23:02:43.928Z,169.30
2023-01-25T23:05:13.161Z,160.90
2023-01-25T23:07:42.788Z,166.92
2023-01-25T23:10:12.521Z,166.92
2023-01-25T23:12:42.050Z,163.95
2023-01-25T23:15:13.662Z,163.85
2023-01-25T23:18:01.575Z,148.72
2023-01-25T23:20:31.385Z,160.70
2023-01-25T23:23:00.606Z,169.68
2023-01-25T23:25:31.189Z,156.02
2023-01-25T23:28:00.762Z,147.20
2023-01-25T23:30:30.407Z,163.85
2023-01-25T23:33:00.063Z,152.75
2023-01-25T23:35:29.613Z,142.98
2023-01-25T23:37:58.971Z,138.95
2023-01-25T23:40:28.226Z,156.80
2023-01-25T23:42:57.725Z,144.65
2023-01-25T23:45:27.024Z,149.60
2023-01-25T23:47:56.372Z,150.18
2023-01-25T23:50:25.631Z,141.43
2023-01-25T23:52:54.849Z,143.05
2023-01-25T23:55:24.079Z,153.50
2023-01-25T23:57:54.624Z,153.27
